createdAt,value
2023-02-17T06:36:50.967Z,101490.72
2023-02-17T06:46:32.635Z,101484.97
2023-02-17T06:50:03.247Z,101483.97
2023-02-17T08:34:20.105Z,101496.81
2023-02-17T11:37:50.670Z,101395.50
2023-02-17T14:10:24.881Z,101248.78
2023-02-17T14:43:02.060Z,101210.97
2023-02-17T14:46:39.433Z,101209.09
2023-02-17T14:50:01.547Z,101215.00
2023-02-17T16:14:55.218Z,101202.41
2023-02-17T16:19:06.985Z,101198.28
2023-02-17T16:22:55.999Z,101197.09
2023-02-17T16:26:34.554Z,101196.19
2023-02-17T16:29:52.633Z,101194.06
2023-02-17T16:33:38.670Z,101198.22
2023-02-17T16:36:55.016Z,101197.72
2023-02-17T16:40:06.483Z,101189.50
2023-02-17T16:43:07.940Z,101195.44
2023-02-17T16:46:05.855Z,101197.62
2023-02-17T16:49:01.124Z,101197.22
2023-02-17T16:51:29.831Z,101196.31
2023-02-17T16:54:21.108Z,101189.81
2023-02-17T16:57:27.538Z,101178.94
2023-02-17T17:00:58.887Z,101188.66
2023-02-17T17:04:19.576Z,101177.94
2023-02-17T17:15:09.309Z,101162.13
2023-02-17T17:18:37.414Z,101157.03
2023-02-17T17:21:31.617Z,101147.56
2023-02-17T17:24:24.800Z,101139.06
2023-02-17T17:27:01.839Z,101137.59
2023-02-17T17:29:30.424Z,101129.03
2023-02-17T17:32:18.787Z,101126.56
2023-02-17T17:35:01.888Z,101119.75
2023-02-17T17:37:33.442Z,101109.38
2023-02-17T17:40:56.740Z,101100.91
2023-02-17T17:48:16.111Z,101109.94
2023-02-17T17:52:04.957Z,101092.06
2023-02-17T17:55:21.102Z,101087.22
2023-02-17T18:03:02.415Z,101066.06
2023-02-17T18:06:06.688Z,101064.50
2023-02-17T18:09:48.630Z,101063.72
2023-02-17T18:13:56.497Z,101062.47
2023-02-17T18:24:35.530Z,101048.25
2023-02-17T18:28:13.801Z,101046.34
2023-02-17T18:31:29.493Z,101036.03
2023-02-17T18:35:11.995Z,101039.44
2023-02-17T18:38:21.005Z,101037.63
2023-02-17T18:41:34.182Z,101031.44
2023-02-17T18:44:42.878Z,101024.75
2023-02-17T18:47:49.927Z,101025.31
2023-02-17T18:51:18.653Z,101020.22
2023-02-17T19:13:26.762Z,101022.59
2023-02-17T19:16:40.522Z,101011.75
2023-02-17T19:20:10.945Z,101012.22
2023-02-17T19:26:40.658Z,101003.97
2023-02-17T19:29:30.987Z,100998.12
2023-02-17T19:45:46.946Z,100983.09
2023-02-17T20:04:53.201Z,100962.06
2023-02-17T20:12:03.614Z,100951.41
